Time;durP1;ratioP1;P1;durP2;ratioP2;P2;SDS_P1;SDS_P2;PMS_P1;PMS_P2;Temp;Humidity;BMP_temperature;BMP_pressure;BME280_temperature;BME280_humidity;BME280_pressure;Samples;Min_cycle;Max_cycle;Signal;HPM_P1;HPM_P2
2020/12/15 00:00:36;;;;;;;;;;;;;;;22.40;26.00;97888.47;5102599;28;693;-75
2020/12/15 00:03:10;;;;;;;;;;;;;;;22.78;25.23;97888.44;5099537;28;1515;-75
2020/12/15 00:05:36;;;;;;;;;;;;;;;22.86;25.39;97893.44;5081445;28;840;-76
2020/12/15 00:08:01;;;;;;;;;;;;;;;22.94;25.16;97896.84;5081760;28;873;-75
2020/12/15 00:10:27;;;;;;;;;;;;;;;22.86;25.12;97909.66;5081781;28;1898;-75
2020/12/15 00:12:52;;;;;;;;;;;;;;;22.27;26.02;97916.78;5081749;28;636;-75
2020/12/15 00:15:18;;;;;;;;;;;;;;;21.75;26.43;97918.69;5082759;28;1532;-75
2020/12/15 00:17:43;;;;;;;;;;;;;;;21.72;26.99;97913.94;5081420;28;1100;-75
2020/12/15 00:20:09;;;;;;;;;;;;;;;21.98;26.83;97925.34;5081277;28;928;-75
2020/12/15 00:22:35;;;;;;;;;;;;;;;22.43;25.99;97922.34;5081514;28;1011;-75
2020/12/15 00:25:00;;;;;;;;;;;;;;;22.62;25.65;97923.38;5065111;28;1563;-75
2020/12/15 00:27:26;;;;;;;;;;;;;;;22.63;25.33;97919.31;5081442;28;1515;-75
2020/12/15 00:29:51;;;;;;;;;;;;;;;22.68;25.54;97920.78;5063921;28;1910;-76
2020/12/15 00:32:16;;;;;;;;;;;;;;;22.75;25.37;97924.19;5080910;28;963;-75
2020/12/15 00:34:42;;;;;;;;;;;;;;;22.51;25.81;97934.28;5081122;28;1488;-75
2020/12/15 00:37:08;;;;;;;;;;;;;;;22.55;25.57;97929.31;5082268;28;1606;-75
2020/12/15 00:39:34;;;;;;;;;;;;;;;21.94;26.32;97930.31;5080968;28;990;-75
2020/12/15 00:41:59;;;;;;;;;;;;;;;21.26;27.16;97926.50;5081497;28;622;-75
2020/12/15 00:44:25;;;;;;;;;;;;;;;21.68;27.06;97924.56;5081013;28;677;-75
2020/12/15 00:46:50;;;;;;;;;;;;;;;22.17;26.36;97927.19;5081801;28;1556;-75
2020/12/15 00:49:16;;;;;;;;;;;;;;;22.54;25.69;97934.19;5080676;28;1913;-75
2020/12/15 00:51:42;;;;;;;;;;;;;;;22.70;25.62;97935.31;5081138;28;974;-75
2020/12/15 00:54:08;;;;;;;;;;;;;;;22.58;25.57;97929.16;5074017;28;1509;-75
2020/12/15 00:56:33;;;;;;;;;;;;;;;22.87;25.36;97933.94;5083869;28;1123;-75
2020/12/15 00:58:59;;;;;;;;;;;;;;;22.71;25.52;97937.69;5083706;28;1236;-75
2020/12/15 01:01:24;;;;;;;;;;;;;;;22.04;26.20;97934.88;5100727;28;1127;-75
2020/12/15 01:03:50;;;;;;;;;;;;;;;21.92;26.44;97938.47;5078114;28;1473;-75
2020/12/15 01:06:20;;;;;;;;;;;;;;;21.79;26.59;97936.38;5057078;28;1524;-75
2020/12/15 01:08:47;;;;;;;;;;;;;;;21.82;26.77;97941.16;5083531;28;1906;-75
2020/12/15 01:11:13;;;;;;;;;;;;;;;22.18;26.39;97934.47;5083266;28;657;-75
2020/12/15 01:13:39;;;;;;;;;;;;;;;22.57;25.63;97943.81;5082357;28;1610;-75
2020/12/15 01:16:05;;;;;;;;;;;;;;;22.75;25.33;97937.59;5063051;28;1519;-75
2020/12/15 01:18:31;;;;;;;;;;;;;;;23.00;25.16;97945.28;5062982;28;1320;-75
2020/12/15 01:20:57;;;;;;;;;;;;;;;22.92;25.19;97941.13;5063356;28;933;-75
2020/12/15 01:23:23;;;;;;;;;;;;;;;22.65;25.49;97939.50;5080443;28;638;-75
2020/12/15 01:25:58;;;;;;;;;;;;;;;21.98;26.35;97936.66;5079108;28;1615;-75
2020/12/15 01:28:24;;;;;;;;;;;;;;;21.49;27.36;97939.66;5082706;28;1906;-75
2020/12/15 01:30:49;;;;;;;;;;;;;;;21.82;26.73;97932.66;5083110;28;1133;-75
2020/12/15 01:33:36;;;;;;;;;;;;;;;22.16;26.56;97941.84;5089638;28;1069;-75
2020/12/15 01:36:10;;;;;;;;;;;;;;;22.50;26.07;97938.38;5067069;28;1449;-76
2020/12/15 01:38:51;;;;;;;;;;;;;;;22.62;25.74;97960.25;5062634;28;1279;-75
2020/12/15 01:41:18;;;;;;;;;;;;;;;22.75;25.36;97968.78;5062796;28;1193;-75
2020/12/15 01:43:54;;;;;;;;;;;;;;;22.99;25.30;97960.72;5062751;28;1692;-75
2020/12/15 01:46:23;;;;;;;;;;;;;;;21.75;26.72;97955.50;5047187;28;1544;-75
2020/12/15 01:48:48;;;;;;;;;;;;;;;21.54;27.20;97953.25;5062025;28;1963;-75
2020/12/15 01:51:14;;;;;;;;;;;;;;;21.52;27.33;97961.41;5057728;28;1501;-75
2020/12/15 01:53:40;;;;;;;;;;;;;;;22.32;26.20;97951.03;5062688;28;1115;-75
2020/12/15 01:56:06;;;;;;;;;;;;;;;22.44;25.94;97957.19;5059427;28;1521;-75
2020/12/15 01:58:31;;;;;;;;;;;;;;;22.50;25.87;97952.56;5079685;28;646;-75
2020/12/15 02:01:07;;;;;;;;;;;;;;;22.70;25.61;97947.44;5079231;28;1165;-75
2020/12/15 02:03:33;;;;;;;;;;;;;;;22.96;25.31;97955.97;5062481;28;1461;-75
2020/12/15 02:06:18;;;;;;;;;;;;;;;23.12;24.79;97955.84;5098859;28;1143;-74
2020/12/15 02:08:58;;;;;;;;;;;;;;;22.08;26.38;97952.56;5082524;28;1898;-75
2020/12/15 02:11:27;;;;;;;;;;;;;;;21.62;26.70;97960.34;5065847;28;1360;-75
2020/12/15 02:13:53;;;;;;;;;;;;;;;21.54;26.91;97953.25;5081464;28;1531;-75
2020/12/15 02:16:18;;;;;;;;;;;;;;;21.82;26.78;97941.16;5062140;28;1556;-75
2020/12/15 02:18:51;;;;;;;;;;;;;;;22.32;26.27;97934.03;5046421;28;1257;-75
2020/12/15 02:21:16;;;;;;;;;;;;;;;22.58;25.65;97936.88;5062299;28;1279;-75
2020/12/15 02:23:50;;;;;;;;;;;;;;;22.82;25.15;97926.78;5062286;28;1278;-76
2020/12/15 02:26:36;;;;;;;;;;;;;;;22.81;24.97;97928.03;5068483;28;1744;-75
2020/12/15 02:29:02;;;;;;;;;;;;;;;22.83;25.20;97925.53;5049628;28;1902;-74
2020/12/15 02:31:28;;;;;;;;;;;;;;;22.86;25.13;97927.47;5066035;28;1170;-75
2020/12/15 02:33:53;;;;;;;;;;;;;;;22.96;24.85;97930.44;5082993;28;894;-76
2020/12/15 02:36:21;;;;;;;;;;;;;;;22.26;25.87;97935.84;5066368;28;1505;-75
2020/12/15 02:39:16;;;;;;;;;;;;;;;21.68;26.76;97937.94;5082609;28;992;-75
2020/12/15 02:41:52;;;;;;;;;;;;;;;21.46;27.27;97946.22;5066404;28;1114;-75
2020/12/15 02:44:18;;;;;;;;;;;;;;;21.92;26.47;97956.25;5082931;28;677;-75
2020/12/15 02:46:49;;;;;;;;;;;;;;;22.27;26.00;97954.44;5080624;28;1563;-75
2020/12/15 02:49:15;;;;;;;;;;;;;;;22.52;25.73;97972.72;5068380;28;1906;-75
2020/12/15 02:51:41;;;;;;;;;;;;;;;22.59;25.59;97969.69;5049252;28;1410;-75
2020/12/15 02:54:18;;;;;;;;;;;;;;;22.47;25.69;97978.97;5065753;28;1547;-75
2020/12/15 02:56:44;;;;;;;;;;;;;;;21.87;26.19;97995.69;5085205;28;1504;-75
2020/12/15 02:59:10;;;;;;;;;;;;;;;22.04;26.08;98002.88;5103063;28;653;-75
2020/12/15 03:01:39;;;;;;;;;;;;;;;21.41;27.06;98000.53;5085834;28;1130;-75
2020/12/15 03:04:05;;;;;;;;;;;;;;;21.76;26.88;98010.94;5068485;28;1238;-75
2020/12/15 03:06:37;;;;;;;;;;;;;;;22.17;26.06;98003.72;5083092;28;1465;-75
2020/12/15 03:09:07;;;;;;;;;;;;;;;22.68;25.72;98012.31;5085498;28;1931;-75
2020/12/15 03:11:34;;;;;;;;;;;;;;;22.61;25.71;98018.22;5085597;28;1241;-75
2020/12/15 03:14:07;;;;;;;;;;;;;;;22.78;25.23;98021.75;5085202;28;1293;-75
2020/12/15 03:16:34;;;;;;;;;;;;;;;22.02;25.97;98016.66;5073135;28;1608;-75
2020/12/15 03:19:00;;;;;;;;;;;;;;;21.46;26.83;98014.16;5064768;28;1313;-76
2020/12/15 03:21:27;;;;;;;;;;;;;;;21.60;26.94;98022.25;5065256;28;1234;-75
2020/12/15 03:23:53;;;;;;;;;;;;;;;21.96;26.45;98035.47;5065230;28;1305;-74
2020/12/15 03:26:19;;;;;;;;;;;;;;;22.21;26.27;98034.81;5066357;28;1512;-75
2020/12/15 03:28:45;;;;;;;;;;;;;;;22.55;25.72;98029.34;5073156;28;1993;-75
2020/12/15 03:31:11;;;;;;;;;;;;;;;22.55;25.78;98020.03;5102212;28;833;-75
2020/12/15 03:33:38;;;;;;;;;;;;;;;22.57;25.72;98023.22;5084774;28;1162;-75
2020/12/15 03:36:05;;;;;;;;;;;;;;;22.06;26.12;98031.53;5067664;28;1507;-75
2020/12/15 03:38:35;;;;;;;;;;;;;;;21.62;26.70;98016.97;5063674;28;1512;-75
2020/12/15 03:41:01;;;;;;;;;;;;;;;21.68;26.76;98020.84;5064772;28;1469;-75
2020/12/15 03:43:40;;;;;;;;;;;;;;;22.12;26.28;98026.16;5064912;28;1281;-75
2020/12/15 03:46:29;;;;;;;;;;;;;;;22.53;25.56;98028.19;5064767;28;1555;-75
2020/12/15 03:48:59;;;;;;;;;;;;;;;22.61;25.45;98024.69;5078643;28;1910;-75
2020/12/15 03:51:32;;;;;;;;;;;;;;;22.61;25.24;98018.22;5064912;28;1317;-75
2020/12/15 03:54:29;;;;;;;;;;;;;;;22.61;25.09;98018.22;5081119;28;1050;-75
2020/12/15 03:57:30;;;;;;;;;;;;;;;22.21;25.76;98007.25;5045054;28;1545;-75
2020/12/15 04:00:16;;;;;;;;;;;;;;;21.89;26.20;98024.34;5079871;28;1060;-75
2020/12/15 04:02:49;;;;;;;;;;;;;;;21.72;26.58;98021.53;5064025;28;1581;-75
2020/12/15 04:05:26;;;;;;;;;;;;;;;21.91;26.55;98033.19;5064192;28;1293;-75
2020/12/15 04:07:54;;;;;;;;;;;;;;;22.40;25.58;98039.50;5064457;28;1559;-75
2020/12/15 04:10:21;;;;;;;;;;;;;;;22.49;25.45;98044.53;5064243;28;1957;-75
2020/12/15 04:12:47;;;;;;;;;;;;;;;22.54;25.67;98046.81;5064448;28;1192;-75
2020/12/15 04:15:12;;;;;;;;;;;;;;;22.60;25.12;98050.69;5065904;28;1571;-75
2020/12/15 04:17:38;;;;;;;;;;;;;;;22.65;25.09;98038.78;5063823;28;1343;-73
2020/12/15 04:20:06;;;;;;;;;;;;;;;22.14;25.86;98047.13;5079257;28;1469;-75
2020/12/15 04:22:32;;;;;;;;;;;;;;;21.42;26.88;98053.06;5060536;28;1537;-75
2020/12/15 04:25:01;;;;;;;;;;;;;;;21.52;27.13;98052.00;5063956;28;1191;-75
2020/12/15 04:27:32;;;;;;;;;;;;;;;22.03;26.30;98043.78;5063789;28;1059;-75
2020/12/15 04:29:58;;;;;;;;;;;;;;;22.34;25.85;98055.50;5063961;28;1906;-75
2020/12/15 04:32:23;;;;;;;;;;;;;;;22.51;25.46;98047.69;5064719;28;1543;-75
2020/12/15 04:35:02;;;;;;;;;;;;;;;22.77;25.06;98049.34;5076126;28;1540;-75
2020/12/15 04:37:29;;;;;;;;;;;;;;;22.75;24.91;98040.50;5083542;28;1155;-75
2020/12/15 04:39:56;;;;;;;;;;;;;;;22.85;25.04;98045.03;5075680;28;1492;-75
2020/12/15 04:42:30;;;;;;;;;;;;;;;22.19;25.77;98046.59;5063562;28;1157;-75
2020/12/15 04:44:55;;;;;;;;;;;;;;;21.61;26.50;98038.03;5063948;28;1138;-75
2020/12/15 04:47:33;;;;;;;;;;;;;;;21.76;26.64;98033.59;5047880;28;1143;-75
2020/12/15 04:50:02;;;;;;;;;;;;;;;22.13;26.11;98034.22;5062357;28;1906;-75
2020/12/15 04:52:51;;;;;;;;;;;;;;;22.58;24.95;98024.78;5063411;28;1339;-75
2020/12/15 04:55:24;;;;;;;;;;;;;;;22.94;24.42;98035.88;5063519;28;1328;-75
2020/12/15 04:57:50;;;;;;;;;;;;;;;22.90;24.90;98028.72;5063060;28;1246;-74
2020/12/15 05:00:16;;;;;;;;;;;;;;;22.73;24.92;98045.81;5046269;28;1116;-75
2020/12/15 05:03:20;;;;;;;;;;;;;;;22.87;24.75;98048.22;5038899;28;1119;-74
2020/12/15 05:05:47;;;;;;;;;;;;;;;22.32;25.13;98041.75;5039434;28;1296;-75
2020/12/15 05:08:13;;;;;;;;;;;;;;;21.81;26.15;98049.22;5046073;28;1356;-75
2020/12/15 05:10:46;;;;;;;;;;;;;;;21.60;26.47;98047.75;5047595;28;1961;-76
2020/12/15 05:13:41;;;;;;;;;;;;;;;22.00;26.16;98047.50;5062600;28;1237;-77
2020/12/15 05:16:08;;;;;;;;;;;;;;;22.33;25.56;98060.38;5079971;28;966;-75
2020/12/15 05:18:45;;;;;;;;;;;;;;;22.51;25.33;98054.16;5079795;28;879;-75
2020/12/15 05:21:19;;;;;;;;;;;;;;;22.54;24.97;98052.50;5063044;28;1261;-75
2020/12/15 05:23:51;;;;;;;;;;;;;;;22.76;24.90;98052.63;5090809;28;1186;-75
2020/12/15 05:26:22;;;;;;;;;;;;;;;22.62;25.09;98048.97;5092370;28;1286;-75
2020/12/15 05:28:59;;;;;;;;;;;;;;;22.74;24.77;98055.94;5091553;28;1914;-75
2020/12/15 05:31:25;;;;;;;;;;;;;;;22.47;24.92;98055.50;5099888;28;1192;-75
2020/12/15 05:34:21;;;;;;;;;;;;;;;21.73;26.46;98071.28;5119995;28;969;-75
2020/12/15 05:37:05;;;;;;;;;;;;;;;21.64;26.43;98075.97;5120619;28;565;-75
2020/12/15 05:39:58;;;;;;;;;;;;;;;22.40;25.15;98075.56;5111986;28;1248;-75
2020/12/15 05:42:24;;;;;;;;;;;;;;;22.54;24.96;98080.84;5102993;28;949;-74
2020/12/15 05:44:50;;;;;;;;;;;;;;;22.57;25.13;98086.38;5085689;28;1326;-75
2020/12/15 05:47:20;;;;;;;;;;;;;;;22.58;25.09;98084.34;5120247;28;894;-74
2020/12/15 05:49:53;;;;;;;;;;;;;;;22.79;24.75;98097.09;5102587;28;1902;-75
2020/12/15 05:52:24;;;;;;;;;;;;;;;22.87;24.38;98092.81;5120374;28;669;-74
2020/12/15 05:54:49;;;;;;;;;;;;;;;22.87;24.42;98104.94;5120441;28;646;-75
2020/12/15 05:57:16;;;;;;;;;;;;;;;22.53;25.06;98107.59;5120392;28;815;-75
2020/12/15 05:59:41;;;;;;;;;;;;;;;22.07;25.44;98098.28;5119922;28;919;-75
2020/12/15 06:02:07;;;;;;;;;;;;;;;21.49;26.46;98112.34;5121959;28;858;-75
2020/12/15 06:04:33;;;;;;;;;;;;;;;21.82;26.38;98116.78;5124537;28;850;-74
2020/12/15 06:07:00;;;;;;;;;;;;;;;22.16;25.43;98117.53;5124538;28;606;-75
2020/12/15 06:09:25;;;;;;;;;;;;;;;22.50;25.22;98125.50;5124394;28;1975;-75
2020/12/15 06:11:51;;;;;;;;;;;;;;;22.40;25.25;98123.78;5106850;28;622;-75
2020/12/15 06:14:16;;;;;;;;;;;;;;;22.58;25.11;98129.72;5124171;28;963;-75
2020/12/15 06:16:41;;;;;;;;;;;;;;;22.75;24.80;98119.91;5124081;28;1098;-74
2020/12/15 06:19:07;;;;;;;;;;;;;;;22.75;24.99;98114.25;5124298;28;987;-75
2020/12/15 06:21:33;;;;;;;;;;;;;;;22.95;24.52;98121.78;5124470;28;737;-75
2020/12/15 06:24:00;;;;;;;;;;;;;;;22.34;25.34;98135.66;5106440;28;669;-75
2020/12/15 06:26:26;;;;;;;;;;;;;;;21.75;26.26;98121.81;5124180;28;629;-75
2020/12/15 06:28:58;;;;;;;;;;;;;;;21.77;26.21;98131.47;5123740;28;1965;-75
2020/12/15 06:31:23;;;;;;;;;;;;;;;21.94;26.14;98131.44;5124098;28;863;-75
2020/12/15 06:33:53;;;;;;;;;;;;;;;22.36;25.36;98144.50;5123811;28;862;-75
2020/12/15 06:36:27;;;;;;;;;;;;;;;22.82;24.83;98147.28;5123929;28;649;-75
2020/12/15 06:38:53;;;;;;;;;;;;;;;22.77;24.80;98151.47;5123748;28;1118;-75
2020/12/15 06:41:19;;;;;;;;;;;;;;;22.96;24.35;98157.44;5124227;28;645;-74
2020/12/15 06:43:45;;;;;;;;;;;;;;;21.92;25.86;98154.56;5123827;28;839;-75
2020/12/15 06:46:13;;;;;;;;;;;;;;;21.69;26.37;98168.88;5123580;28;954;-75
2020/12/15 06:48:39;;;;;;;;;;;;;;;21.58;26.78;98174.81;5123659;28;1914;-75
2020/12/15 06:51:04;;;;;;;;;;;;;;;22.14;25.58;98182.38;5123774;28;709;-73
2020/12/15 06:53:29;;;;;;;;;;;;;;;22.39;25.46;98193.06;5123649;28;594;-75
2020/12/15 06:55:58;;;;;;;;;;;;;;;22.76;25.12;98183.91;5106173;28;658;-75
2020/12/15 06:58:24;;;;;;;;;;;;;;;22.23;25.22;98189.00;5123133;28;869;-75
2020/12/15 07:00:49;;;;;;;;;;;;;;;21.62;26.06;98192.53;5123466;28;939;-75
2020/12/15 07:03:15;;;;;;;;;;;;;;;21.36;26.70;98196.38;5123457;28;984;-76
2020/12/15 07:05:40;;;;;;;;;;;;;;;21.92;26.13;98204.75;5105981;28;591;-77
2020/12/15 07:08:06;;;;;;;;;;;;;;;22.24;25.87;98221.78;5123410;28;626;-77
2020/12/15 07:10:32;;;;;;;;;;;;;;;22.67;25.01;98226.31;5123129;28;1893;-77
2020/12/15 07:13:00;;;;;;;;;;;;;;;22.56;25.29;98239.97;5122994;28;957;-76
2020/12/15 07:15:26;;;;;;;;;;;;;;;22.76;25.01;98252.00;5123121;28;937;-77
2020/12/15 07:17:52;;;;;;;;;;;;;;;22.94;24.93;98245.06;5123050;28;665;-77
2020/12/15 07:20:18;;;;;;;;;;;;;;;22.28;25.55;98256.50;5122740;28;1050;-77
2020/12/15 07:23:05;;;;;;;;;;;;;;;21.43;26.68;98252.81;5113168;28;1117;-74
2020/12/15 07:25:30;;;;;;;;;;;;;;;21.82;26.18;98255.56;5111083;28;1165;-75
2020/12/15 07:27:58;;;;;;;;;;;;;;;21.30;27.06;98272.50;5119642;28;1204;-74
2020/12/15 07:30:23;;;;;;;;;;;;;;;21.97;26.08;98275.06;5105344;28;1894;-74
2020/12/15 07:32:49;;;;;;;;;;;;;;;22.54;25.42;98274.47;5122407;28;1094;-75
2020/12/15 07:35:17;;;;;;;;;;;;;;;22.72;24.92;98279.66;5110955;28;1173;-75
2020/12/15 07:37:43;;;;;;;;;;;;;;;22.73;25.07;98286.91;5111662;28;1196;-74
2020/12/15 07:40:40;;;;;;;;;;;;;;;22.72;25.04;98285.31;5109848;28;1156;-75
2020/12/15 07:43:06;;;;;;;;;;;;;;;21.68;26.45;98280.56;5082300;28;1194;-73
2020/12/15 07:45:33;;;;;;;;;;;;;;;21.58;26.48;98283.19;5112760;28;1299;-74
2020/12/15 07:47:58;;;;;;;;;;;;;;;21.35;26.87;98291.00;5111274;28;1260;-74
2020/12/15 07:50:26;;;;;;;;;;;;;;;21.83;26.60;98281.84;5111402;28;1969;-75
2020/12/15 07:52:51;;;;;;;;;;;;;;;22.19;25.98;98276.16;5092796;28;1170;-75
2020/12/15 07:55:17;;;;;;;;;;;;;;;22.43;25.44;98267.47;5106525;28;1169;-75
2020/12/15 07:57:42;;;;;;;;;;;;;;;22.71;25.17;98277.28;5111654;28;1189;-75
2020/12/15 08:00:08;;;;;;;;;;;;;;;22.76;25.07;98274.69;5110601;28;1129;-75
2020/12/15 08:02:37;;;;;;;;;;;;;;;21.33;26.92;98277.28;5108600;28;991;-75
2020/12/15 08:05:06;;;;;;;;;;;;;;;21.73;26.20;98272.34;5111398;28;1231;-75
2020/12/15 08:07:36;;;;;;;;;;;;;;;21.85;26.21;98280.16;5095100;28;1319;-75
2020/12/15 08:10:01;;;;;;;;;;;;;;;22.00;26.05;98279.84;5093561;28;1902;-75
2020/12/15 08:12:35;;;;;;;;;;;;;;;22.35;25.65;98287.50;5110628;28;1137;-75
2020/12/15 08:15:01;;;;;;;;;;;;;;;22.48;25.38;98298.91;5109463;28;1110;-75
2020/12/15 08:17:27;;;;;;;;;;;;;;;22.62;25.42;98309.09;5110711;28;1292;-75
2020/12/15 08:19:58;;;;;;;;;;;;;;;22.84;24.81;98320.66;5112231;28;1268;-75
2020/12/15 08:22:27;;;;;;;;;;;;;;;22.78;24.83;98328.13;5094149;28;1224;-75
2020/12/15 08:24:52;;;;;;;;;;;;;;;22.37;25.36;98326.75;5109190;28;1204;-75
2020/12/15 08:27:18;;;;;;;;;;;;;;;21.83;26.03;98316.63;5093850;28;1157;-75
2020/12/15 08:29:43;;;;;;;;;;;;;;;21.72;26.52;98310.41;5111037;28;1973;-75
2020/12/15 08:32:09;;;;;;;;;;;;;;;22.02;26.24;98322.69;5110003;28;1284;-75
2020/12/15 08:34:34;;;;;;;;;;;;;;;22.34;25.76;98310.63;5104756;28;1134;-75
2020/12/15 08:37:00;;;;;;;;;;;;;;;22.65;25.34;98313.09;5098102;28;1121;-74
2020/12/15 08:39:28;;;;;;;;;;;;;;;22.74;25.08;98305.56;5109980;28;1265;-75
2020/12/15 08:41:55;;;;;;;;;;;;;;;22.68;25.08;98307.31;5094324;28;1228;-75
2020/12/15 08:44:21;;;;;;;;;;;;;;;22.53;25.31;98306.88;5110101;28;1255;-75
2020/12/15 08:46:46;;;;;;;;;;;;;;;22.75;24.90;98300.69;5084645;28;1307;-75
2020/12/15 08:49:15;;;;;;;;;;;;;;;22.74;25.03;98299.88;5100850;28;1909;-75
2020/12/15 08:51:50;;;;;;;;;;;;;;;21.75;26.27;98286.06;5100898;28;665;-74
2020/12/15 08:54:15;;;;;;;;;;;;;;;21.57;26.43;98297.81;5106787;28;1093;-75
2020/12/15 08:56:41;;;;;;;;;;;;;;;21.79;26.30;98290.41;5109886;28;1150;-75
2020/12/15 08:59:25;;;;;;;;;;;;;;;22.16;25.88;98294.03;5111370;28;1185;-75
2020/12/15 09:01:57;;;;;;;;;;;;;;;22.51;25.42;98291.56;5105691;28;1135;-75
2020/12/15 09:04:26;;;;;;;;;;;;;;;22.76;25.18;98291.72;5093461;28;1232;-75
2020/12/15 09:06:51;;;;;;;;;;;;;;;22.81;24.92;98291.16;5091400;28;1237;-75
2020/12/15 09:09:23;;;;;;;;;;;;;;;22.71;25.08;98295.09;5110145;28;1907;-75
2020/12/15 09:11:52;;;;;;;;;;;;;;;21.89;26.35;98284.97;5110949;28;1363;-75
2020/12/15 09:14:17;;;;;;;;;;;;;;;21.25;27.03;98287.94;5092539;28;1209;-75
2020/12/15 09:16:43;;;;;;;;;;;;;;;21.74;26.53;98302.28;5109716;28;1248;-75
2020/12/15 09:19:12;;;;;;;;;;;;;;;22.21;25.90;98299.19;5093493;28;1286;-75
2020/12/15 09:21:38;;;;;;;;;;;;;;;22.53;25.39;98303.25;5057566;28;1147;-75
2020/12/15 09:24:03;;;;;;;;;;;;;;;22.73;25.18;98315.28;5109206;28;1189;-74
2020/12/15 09:26:29;;;;;;;;;;;;;;;22.47;25.03;98311.50;5110716;28;1192;-74
2020/12/15 09:29:04;;;;;;;;;;;;;;;21.76;26.30;98311.16;5109046;28;1985;-75
2020/12/15 09:31:30;;;;;;;;;;;;;;;21.59;26.49;98317.97;5091342;28;1340;-74
2020/12/15 09:33:55;;;;;;;;;;;;;;;22.03;26.03;98321.47;5110569;28;1168;-75
2020/12/15 09:36:21;;;;;;;;;;;;;;;22.43;25.38;98310.00;5109967;28;1160;-75
2020/12/15 09:38:47;;;;;;;;;;;;;;;22.71;25.22;98312.09;5108725;28;1165;-75
2020/12/15 09:41:12;;;;;;;;;;;;;;;22.66;25.27;98304.13;5105988;28;1087;-75
2020/12/15 09:43:38;;;;;;;;;;;;;;;22.83;24.83;98297.19;5109896;28;1192;-75
2020/12/15 09:46:04;;;;;;;;;;;;;;;22.84;24.64;98298.78;5108598;28;1192;-75
2020/12/15 09:48:29;;;;;;;;;;;;;;;22.31;25.15;98289.63;5100136;28;665;-74
2020/12/15 09:50:55;;;;;;;;;;;;;;;21.68;26.45;98286.25;5099899;28;1898;-75
2020/12/15 09:53:21;;;;;;;;;;;;;;;21.50;26.68;98280.97;5099714;28;984;-75
2020/12/15 09:55:46;;;;;;;;;;;;;;;21.99;26.34;98275.41;5099853;28;839;-75
2020/12/15 09:58:12;;;;;;;;;;;;;;;22.31;25.57;98272.59;5099859;28;842;-75
2020/12/15 10:00:37;;;;;;;;;;;;;;;22.67;25.15;98254.66;5099899;28;689;-75
2020/12/15 10:03:02;;;;;;;;;;;;;;;22.66;25.13;98258.75;5099964;28;698;-75
2020/12/15 10:05:28;;;;;;;;;;;;;;;22.74;25.01;98254.50;5099837;28;614;-74
2020/12/15 10:07:53;;;;;;;;;;;;;;;22.82;24.84;98252.25;5099574;28;1089;-75
2020/12/15 10:10:26;;;;;;;;;;;;;;;22.83;25.00;98251.78;5099423;28;1922;-75
2020/12/15 10:12:52;;;;;;;;;;;;;;;22.22;25.53;98257.47;5099858;28;873;-75
2020/12/15 10:15:17;;;;;;;;;;;;;;;21.97;25.89;98258.06;5099730;28;554;-75
2020/12/15 10:17:43;;;;;;;;;;;;;;;21.68;26.63;98252.25;5100424;28;646;-75
2020/12/15 10:20:09;;;;;;;;;;;;;;;21.99;26.18;98255.56;5082345;28;646;-75
2020/12/15 10:22:34;;;;;;;;;;;;;;;22.35;25.57;98244.97;5099323;28;932;-75
2020/12/15 10:24:59;;;;;;;;;;;;;;;22.49;25.20;98240.97;5099491;28;857;-75
2020/12/15 10:27:25;;;;;;;;;;;;;;;22.65;25.22;98223.13;5099662;28;1034;-75
2020/12/15 10:29:50;;;;;;;;;;;;;;;22.67;24.86;98231.19;5099548;28;1905;-74
2020/12/15 10:32:16;;;;;;;;;;;;;;;22.52;25.17;98230.78;5099631;28;670;-74
2020/12/15 10:34:41;;;;;;;;;;;;;;;22.50;25.42;98224.75;5099866;28;682;-75
2020/12/15 10:37:07;;;;;;;;;;;;;;;21.88;26.11;98226.72;5099317;28;1209;-75
2020/12/15 10:39:32;;;;;;;;;;;;;;;21.51;26.39;98214.63;5099108;28;976;-77
2020/12/15 10:41:58;;;;;;;;;;;;;;;21.72;26.58;98214.13;5099569;28;912;-77
2020/12/15 10:44:23;;;;;;;;;;;;;;;22.17;25.63;98204.94;5099418;28;663;-77
2020/12/15 10:46:50;;;;;;;;;;;;;;;22.47;25.36;98205.78;5048846;28;1186;-77
2020/12/15 10:49:16;;;;;;;;;;;;;;;22.71;25.11;98197.84;5102818;28;1901;-77
2020/12/15 10:51:42;;;;;;;;;;;;;;;22.59;24.97;98202.25;5102825;28;915;-78
2020/12/15 10:54:07;;;;;;;;;;;;;;;22.76;24.93;98200.94;5102974;28;823;-76
2020/12/15 10:56:33;;;;;;;;;;;;;;;22.72;24.95;98202.28;5085866;28;1105;-76
2020/12/15 10:58:58;;;;;;;;;;;;;;;22.20;25.68;98200.44;5103065;28;643;-77
2020/12/15 11:01:28;;;;;;;;;;;;;;;21.35;26.81;98194.75;5085240;28;801;-76
2020/12/15 11:03:53;;;;;;;;;;;;;;;21.54;26.58;98197.53;5069406;28;1079;-77
2020/12/15 11:06:23;;;;;;;;;;;;;;;22.07;26.01;98200.31;5102627;28;976;-77
2020/12/15 11:08:48;;;;;;;;;;;;;;;22.41;25.31;98188.53;5102441;28;1973;-77
2020/12/15 11:11:14;;;;;;;;;;;;;;;22.74;25.10;98194.91;5102860;28;995;-75
2020/12/15 11:13:39;;;;;;;;;;;;;;;22.91;24.45;98203.41;5102828;28;702;-75
2020/12/15 11:16:05;;;;;;;;;;;;;;;22.84;24.77;98202.31;5085366;28;662;-74
2020/12/15 11:18:30;;;;;;;;;;;;;;;22.72;25.21;98186.06;5102651;28;694;-75
2020/12/15 11:20:55;;;;;;;;;;;;;;;21.90;26.08;98195.91;5102543;28;947;-75
2020/12/15 11:23:21;;;;;;;;;;;;;;;21.66;26.61;98198.91;5102352;28;912;-74
2020/12/15 11:25:49;;;;;;;;;;;;;;;21.64;26.74;98201.38;5102850;28;1065;-75
2020/12/15 11:28:18;;;;;;;;;;;;;;;22.03;26.11;98205.28;5102569;28;654;-75
2020/12/15 11:30:44;;;;;;;;;;;;;;;22.36;25.33;98200.41;5084948;28;1902;-75
2020/12/15 11:33:09;;;;;;;;;;;;;;;22.74;24.94;98208.28;5102406;28;673;-75
2020/12/15 11:35:35;;;;;;;;;;;;;;;22.92;24.78;98185.91;5102092;28;880;-68
2020/12/15 11:38:01;;;;;;;;;;;;;;;21.97;26.70;98207.06;5102636;28;907;-68
2020/12/15 11:40:29;;;;;;;;;;;;;;;20.52;31.08;98201.28;5102178;28;991;-70
2020/12/15 11:42:57;;;;;;;;;;;;;;;20.75;31.00;98203.28;5085049;28;685;-70
2020/12/15 11:45:26;;;;;;;;;;;;;;;21.09;30.42;98203.00;5102464;28;721;-70
2020/12/15 11:47:51;;;;;;;;;;;;;;;22.02;28.64;98201.66;5102188;28;654;-76
2020/12/15 11:50:17;;;;;;;;;;;;;;;21.86;28.56;98212.97;5101652;28;1974;-77
2020/12/15 11:52:43;;;;;;;;;;;;;;;21.49;29.05;98222.75;5101718;28;936;-76
2020/12/15 11:55:08;;;;;;;;;;;;;;;21.91;28.67;98225.81;5102048;28;900;-76
2020/12/15 11:57:34;;;;;;;;;;;;;;;22.25;27.84;98223.38;5101924;28;582;-75
2020/12/15 11:59:59;;;;;;;;;;;;;;;22.46;27.38;98230.50;5100788;28;594;-76
2020/12/15 12:02:25;;;;;;;;;;;;;;;22.76;26.51;98232.13;5102060;28;635;-76
2020/12/15 12:04:50;;;;;;;;;;;;;;;22.94;26.05;98222.34;5050474;28;939;-76
2020/12/15 12:07:15;;;;;;;;;;;;;;;22.99;26.04;98236.00;5101561;28;822;-76
2020/12/15 12:09:41;;;;;;;;;;;;;;;22.42;26.58;98231.84;5101937;28;1905;-76
2020/12/15 12:12:06;;;;;;;;;;;;;;;21.95;27.36;98238.66;5101694;28;645;-76
2020/12/15 12:14:32;;;;;;;;;;;;;;;21.24;28.19;98241.06;5101553;28;638;-76
2020/12/15 12:16:57;;;;;;;;;;;;;;;22.02;27.16;98232.00;5101711;28;708;-77
2020/12/15 12:19:23;;;;;;;;;;;;;;;22.52;26.44;98230.78;5101153;28;982;-77
2020/12/15 12:21:48;;;;;;;;;;;;;;;22.74;25.92;98223.28;5101210;28;956;-77
2020/12/15 12:24:14;;;;;;;;;;;;;;;22.79;26.01;98222.72;5101500;28;908;-73
2020/12/15 12:26:39;;;;;;;;;;;;;;;22.81;25.80;98233.63;5101370;28;728;-75
2020/12/15 12:29:04;;;;;;;;;;;;;;;22.60;26.04;98238.66;5101190;28;1901;-74
2020/12/15 12:31:30;;;;;;;;;;;;;;;21.72;27.01;98253.78;5101385;28;664;-75
2020/12/15 12:33:55;;;;;;;;;;;;;;;21.72;27.04;98245.28;5100928;28;1057;-73
2020/12/15 12:36:21;;;;;;;;;;;;;;;21.63;27.25;98253.56;5100901;28;903;-74
2020/12/15 12:38:46;;;;;;;;;;;;;;;22.20;26.61;98254.28;5101337;28;964;-75
2020/12/15 12:41:15;;;;;;;;;;;;;;;22.31;26.48;98255.59;5101073;28;669;-74
2020/12/15 12:43:41;;;;;;;;;;;;;;;22.72;25.66;98268.31;5100934;28;637;-75
2020/12/15 12:46:07;;;;;;;;;;;;;;;22.62;25.93;98263.72;5101147;28;635;-75
2020/12/15 12:48:32;;;;;;;;;;;;;;;22.65;25.81;98268.50;5100708;28;937;-75
2020/12/15 12:50:58;;;;;;;;;;;;;;;22.30;26.24;98282.34;5100558;28;1898;-74
2020/12/15 12:53:23;;;;;;;;;;;;;;;21.59;27.32;98278.34;5100920;28;1022;-74
2020/12/15 12:55:48;;;;;;;;;;;;;;;21.64;27.04;98279.84;5101018;28;620;-74
2020/12/15 12:58:14;;;;;;;;;;;;;;;21.93;26.78;98288.50;5100791;28;716;-74
2020/12/15 13:00:43;;;;;;;;;;;;;;;22.31;26.27;98295.28;5101085;28;638;-74
2020/12/15 13:03:09;;;;;;;;;;;;;;;22.47;26.05;98307.88;5083198;28;982;-75
2020/12/15 13:05:34;;;;;;;;;;;;;;;22.60;25.42;98301.03;5100350;28;921;-74